Terminal Aerodrome Forecast
Issued by NWS

Home | Current Version | Previous Version | Text Only | Print | Product List | Glossary On
Versions: 1 2 3 4 5 6 7 8 9 10 11 12 13 14 15 16 17 18 19 20 21 22 23 24 25 26 27 28 29 30 31 32 33 34 35 36 37 38 39 40 41 42 43 44
000
FTUS42 KRAH 260759 AAA
TAFINT
TAF AMD
KINT 260759Z 2608/2706 VRB03KT P6SM SCT005 BKN015
      TEMPO 2609/2613 3SM BR OVC005
     FM261400 25005KT P6SM BKN025
     FM261600 25007KT P6SM SCT025 SCT040
     FM270000 23005KT P6SM FEW250=

USA.gov is the U.S. government's official web portal to all federal, state and local government web resources and services.